Trine Charlotte — LMRY — position and weather

sailwx.info

Track history (hours):
 
Tides and Currents Weather Stations Pressure Air Temp Water Temp Dewpoint Dewpoint Depression Visibility Wind Speed Wind Dir Waves Ship Positions

Trine Charlotte

Last reported at 2015-May-03 10:30 UTC. Time now 2015-May-03 10:50 UTC.
Position N 66°27' E 012°59'.

Length 66 m.

Type: Wing in ground effect craft. MMSI: 257233000.

Date/timePositionNaut miles runAvg speedWind from/ knotsBaromVisibWave heightAir tempDewpointWater temp
2015-May-03 10:30N 66°27' E 012°59'33 8.3
2015-May-03 06:33N 66°57' E 013°29'10 8.8
2015-May-03 05:27N 67°03' E 013°50'8 8.7
2015-May-03 04:33N 67°09' E 014°02'9 8.6
2015-May-03 03:33N 67°16' E 014°13'9 8.9
2015-May-03 02:33N 67°24' E 014°26'9 9.0
2015-May-03 01:33N 67°33' E 014°30'158 8.3
2015-May-02 06:33N 69°37' E 018°55'8 8.4
2015-May-02 05:33N 69°45' E 019°06'68 8.4
2015-May-01 21:28N 70°23' E 021°50'70 2.0
2015-Apr-30 10:07N 69°42' E 019°03'3 5.7
2015-Apr-30 09:33N 69°40' E 018°58'0 0.0
2015-Apr-30 08:33N 69°40' E 018°58'153 8.0
2015-Apr-29 13:33N 67°42' E 014°31'9 8.3
2015-Apr-29 12:29N 67°37' E 014°50'9 9.8
2015-Apr-29 11:33N 67°33' E 015°12'9 9.3
2015-Apr-29 10:33N 67°27' E 015°30'5 5.3
2015-Apr-29 09:33N 67°22' E 015°35'0 0.0
2015-Apr-29 08:33N 67°22' E 015°35'0 0.0
2015-Apr-29 07:33N 67°22' E 015°35'0 0.0
2015-Apr-29 06:33N 67°22' E 015°35'0 0.0
2015-Apr-29 05:33N 67°22' E 015°35'0 0.0
2015-Apr-29 04:33N 67°22' E 015°35'0 0.0
2015-Apr-29 03:33N 67°22' E 015°35'2 1.6
2015-Apr-29 02:33N 67°24' E 015°35'9 8.5
2015-Apr-29 01:32N 67°31' E 015°22'11 8.4
2015-Apr-29 00:16N 67°36' E 014°58'7 8.5
2015-Apr-28 23:25N 67°32' E 014°42'8 8.8
2015-Apr-28 22:33N 67°26' E 014°30'9 9.0
2015-Apr-28 21:33N 67°18' E 014°17'9 9.3
2015-Apr-28 20:33N 67°11' E 014°04'9 9.3
2015-Apr-28 19:33N 67°03' E 013°50'9 9.2
2015-Apr-28 18:33N 66°58' E 013°31'9 8.5
2015-Apr-28 17:33N 66°51' E 013°18'9 8.8
2015-Apr-28 16:33N 66°43' E 013°10'13 8.4
2015-Apr-28 15:03N 66°31' E 012°58'5 9.1
2015-Apr-28 14:30N 66°26' E 012°59'92 9.0
2015-Apr-28 04:19N 65°00' E 011°38'7 9.3
2015-Apr-28 03:33N 64°56' E 011°25'13 0.3
2015-Apr-26 13:25N 64°46' E 011°05'7 8.1
2015-Apr-26 12:34N 64°52' E 011°15'8 8.4
2015-Apr-26 11:34N 64°57' E 011°30'11 8.7
2015-Apr-26 10:20N 65°05' E 011°47'8 8.7
2015-Apr-26 09:27N 65°12' E 011°53'76 7.7
2015-Apr-25 23:33N 66°23' E 012°58'8 7.4
2015-Apr-25 22:25N 66°32' E 012°58'31 8.0
2015-Apr-25 18:33N 66°59' E 013°35'9 9.0
2015-Apr-25 17:33N 67°04' E 013°54'8 8.4
2015-Apr-25 16:34N 67°11' E 014°05'9 8.8
2015-Apr-25 15:33N 67°19' E 014°17'8 8.5
2015-Apr-25 14:34N 67°26' E 014°28'8 8.3
2015-Apr-25 13:33N 67°34' E 014°30'8 8.1
2015-Apr-25 12:33N 67°42' E 014°31'  
Track history (hours):
 
Tides and Currents Weather Stations Pressure Air Temp Water Temp Dewpoint Dewpoint Depression Visibility Wind Speed Wind Dir Waves Ship Positions

Trine Charlotte

Last reported at 2015-May-03 10:30 UTC. Time now 2015-May-03 10:50 UTC.
Position N 66°27' E 012°59'.

Length 66 m.

Type: Wing in ground effect craft. MMSI: 257233000.

Date/timePositionNaut miles runAvg speedWind from/ knotsBaromVisibWave heightAir tempDewpointWater temp
2015-May-03 10:30N 66°27' E 012°59'33 8.3
2015-May-03 06:33N 66°57' E 013°29'10 8.8
2015-May-03 05:27N 67°03' E 013°50'8 8.7
2015-May-03 04:33N 67°09' E 014°02'9 8.6
2015-May-03 03:33N 67°16' E 014°13'9 8.9
2015-May-03 02:33N 67°24' E 014°26'9 9.0
2015-May-03 01:33N 67°33' E 014°30'158 8.3
2015-May-02 06:33N 69°37' E 018°55'8 8.4
2015-May-02 05:33N 69°45' E 019°06'68 8.4
2015-May-01 21:28N 70°23' E 021°50'70 2.0
2015-Apr-30 10:07N 69°42' E 019°03'3 5.7
2015-Apr-30 09:33N 69°40' E 018°58'0 0.0
2015-Apr-30 08:33N 69°40' E 018°58'153 8.0
2015-Apr-29 13:33N 67°42' E 014°31'9 8.3
2015-Apr-29 12:29N 67°37' E 014°50'9 9.8
2015-Apr-29 11:33N 67°33' E 015°12'9 9.3
2015-Apr-29 10:33N 67°27' E 015°30'5 5.3
2015-Apr-29 09:33N 67°22' E 015°35'0 0.0
2015-Apr-29 08:33N 67°22' E 015°35'0 0.0
2015-Apr-29 07:33N 67°22' E 015°35'0 0.0
2015-Apr-29 06:33N 67°22' E 015°35'0 0.0
2015-Apr-29 05:33N 67°22' E 015°35'0 0.0
2015-Apr-29 04:33N 67°22' E 015°35'0 0.0
2015-Apr-29 03:33N 67°22' E 015°35'2 1.6
2015-Apr-29 02:33N 67°24' E 015°35'9 8.5
2015-Apr-29 01:32N 67°31' E 015°22'11 8.4
2015-Apr-29 00:16N 67°36' E 014°58'7 8.5
2015-Apr-28 23:25N 67°32' E 014°42'8 8.8
2015-Apr-28 22:33N 67°26' E 014°30'9 9.0
2015-Apr-28 21:33N 67°18' E 014°17'9 9.3
2015-Apr-28 20:33N 67°11' E 014°04'9 9.3
2015-Apr-28 19:33N 67°03' E 013°50'9 9.2
2015-Apr-28 18:33N 66°58' E 013°31'9 8.5
2015-Apr-28 17:33N 66°51' E 013°18'9 8.8
2015-Apr-28 16:33N 66°43' E 013°10'13 8.4
2015-Apr-28 15:03N 66°31' E 012°58'5 9.1
2015-Apr-28 14:30N 66°26' E 012°59'92 9.0
2015-Apr-28 04:19N 65°00' E 011°38'7 9.3
2015-Apr-28 03:33N 64°56' E 011°25'13 0.3
2015-Apr-26 13:25N 64°46' E 011°05'7 8.1
2015-Apr-26 12:34N 64°52' E 011°15'8 8.4
2015-Apr-26 11:34N 64°57' E 011°30'11 8.7
2015-Apr-26 10:20N 65°05' E 011°47'8 8.7
2015-Apr-26 09:27N 65°12' E 011°53'76 7.7
2015-Apr-25 23:33N 66°23' E 012°58'8 7.4
2015-Apr-25 22:25N 66°32' E 012°58'31 8.0
2015-Apr-25 18:33N 66°59' E 013°35'9 9.0
2015-Apr-25 17:33N 67°04' E 013°54'8 8.4
2015-Apr-25 16:34N 67°11' E 014°05'9 8.8
2015-Apr-25 15:33N 67°19' E 014°17'8 8.5
2015-Apr-25 14:34N 67°26' E 014°28'8 8.3
2015-Apr-25 13:33N 67°34' E 014°30'8 8.1
2015-Apr-25 12:33N 67°42' E 014°31'  

Dump ship's entire track history